createdAt,value
2023-03-28T00:01:35.680Z,66.64
2023-03-28T00:04:38.386Z,66.87
2023-03-28T00:07:41.601Z,66.75
2023-03-28T00:10:45.902Z,68.36
2023-03-28T00:13:51.456Z,68.80
2023-03-28T00:16:54.296Z,70.44
2023-03-28T00:19:57.107Z,70.26
2023-03-28T00:23:00.168Z,70.61
2023-03-28T00:26:13.096Z,70.10
2023-03-28T00:29:21.162Z,68.96
2023-03-28T00:32:24.355Z,69.38
2023-03-28T00:35:27.111Z,68.76
2023-03-28T00:38:30.028Z,68.84
2023-03-28T00:41:37.138Z,69.10
2023-03-28T00:44:43.867Z,69.02
2023-03-28T00:47:51.701Z,68.57
2023-03-28T00:50:57.513Z,68.96
2023-03-28T00:54:02.023Z,68.31
2023-03-28T00:57:08.388Z,67.77
2023-03-28T01:00:13.347Z,67.99
2023-03-28T01:03:18.888Z,67.93
2023-03-28T01:06:22.571Z,67.77
2023-03-28T01:09:26.272Z,68.05
2023-03-28T01:12:30.348Z,67.64
2023-03-28T01:15:33.923Z,67.88
2023-03-28T01:18:41.441Z,68.48
2023-03-28T01:22:13.859Z,67.91
2023-03-28T01:25:54.382Z,69.33
2023-03-28T01:29:29.935Z,69.55
2023-03-28T01:32:57.420Z,68.95
2023-03-28T01:36:34.459Z,69.16
2023-03-28T01:39:54.225Z,68.74
2023-03-28T01:43:11.063Z,69.77
2023-03-28T01:46:18.884Z,69.17
2023-03-28T01:49:30.729Z,69.71
2023-03-28T01:52:39.719Z,70.84
2023-03-28T01:55:54.395Z,73.44
2023-03-28T01:59:03.847Z,73.47
2023-03-28T02:02:13.505Z,73.24
2023-03-28T02:05:19.290Z,73.72
2023-03-28T02:08:23.193Z,73.57
2023-03-28T02:11:29.520Z,74.00
2023-03-28T02:14:38.534Z,74.83
2023-03-28T02:17:44.219Z,73.53
2023-03-28T02:20:54.110Z,73.67
2023-03-28T02:23:57.437Z,72.42
2023-03-28T02:27:01.753Z,72.23
2023-03-28T02:30:05.136Z,71.58
2023-03-28T02:33:28.691Z,70.56
2023-03-28T02:36:37.476Z,69.85
2023-03-28T02:39:47.001Z,68.99
2023-03-28T02:43:11.292Z,68.84
2023-03-28T02:46:22.105Z,69.72
2023-03-28T02:49:47.677Z,69.48
2023-03-28T02:53:03.094Z,70.05
2023-03-28T02:56:11.886Z,69.33
2023-03-28T02:59:24.440Z,69.88
2023-03-28T03:02:29.140Z,70.53
2023-03-28T03:05:31.929Z,69.86
2023-03-28T03:08:34.827Z,70.42
2023-03-28T03:11:37.681Z,71.19
2023-03-28T03:14:42.083Z,70.49
2023-03-28T03:17:45.551Z,70.75
2023-03-28T03:20:50.174Z,71.50
2023-03-28T03:23:53.547Z,71.43
2023-03-28T03:26:56.398Z,72.60
2023-03-28T03:30:00.561Z,72.62
2023-03-28T03:33:05.557Z,72.22
2023-03-28T03:36:12.577Z,71.41
2023-03-28T03:39:15.418Z,72.26
2023-03-28T03:42:18.191Z,72.25
2023-03-28T03:45:22.593Z,72.10
2023-03-28T03:48:25.524Z,71.93
2023-03-28T03:51:28.274Z,71.65
2023-03-28T03:54:31.201Z,73.33
2023-03-28T03:57:34.097Z,73.17
2023-03-28T04:00:38.666Z,72.50
2023-03-28T04:03:42.001Z,71.64
2023-03-28T04:06:44.746Z,72.38
2023-03-28T04:09:47.472Z,73.16
2023-03-28T04:12:50.603Z,72.58
2023-03-28T04:15:54.729Z,72.03
2023-03-28T04:18:57.954Z,71.50
2023-03-28T04:22:00.659Z,72.73
2023-03-28T04:25:04.548Z,71.52
2023-03-28T04:28:09.295Z,72.49
2023-03-28T04:31:13.604Z,71.95
2023-03-28T04:34:16.718Z,72.38
2023-03-28T04:37:20.547Z,72.03
2023-03-28T04:40:24.320Z,72.18
2023-03-28T04:43:27.772Z,70.99
2023-03-28T04:46:32.001Z,72.40
2023-03-28T04:49:34.762Z,72.28
2023-03-28T04:52:37.862Z,72.65
2023-03-28T04:55:40.680Z,72.98
2023-03-28T04:58:43.398Z,72.66
2023-03-28T05:01:50.018Z,71.88
2023-03-28T05:04:53.469Z,72.02
2023-03-28T05:07:56.379Z,71.80
2023-03-28T05:10:59.400Z,72.49
2023-03-28T05:14:02.336Z,72.15
2023-03-28T05:17:06.751Z,71.91
2023-03-28T05:20:11.057Z,72.02
2023-03-28T05:23:14.228Z,70.89
2023-03-28T05:26:17.413Z,71.15
2023-03-28T05:29:20.212Z,70.95
2023-03-28T05:32:26.315Z,70.93
2023-03-28T05:35:30.747Z,71.33
2023-03-28T05:38:33.773Z,71.80
2023-03-28T05:41:36.633Z,69.97
2023-03-28T05:44:39.526Z,69.47
2023-03-28T05:47:43.697Z,70.91
2023-03-28T05:50:48.714Z,69.66
2023-03-28T05:53:51.671Z,70.34
2023-03-28T05:56:54.394Z,71.00
2023-03-28T05:59:57.254Z,70.33
2023-03-28T06:03:01.564Z,70.59
2023-03-28T06:06:04.612Z,70.05
2023-03-28T06:09:07.506Z,68.79
2023-03-28T06:12:10.244Z,69.01
2023-03-28T06:15:14.859Z,68.43
2023-03-28T06:18:19.165Z,67.44
2023-03-28T06:21:21.997Z,65.40
2023-03-28T06:24:24.724Z,66.37
2023-03-28T06:27:27.470Z,63.33
2023-03-28T06:30:30.302Z,62.32
2023-03-28T06:33:34.381Z,61.18
2023-03-28T06:36:37.297Z,61.00
2023-03-28T06:39:40.060Z,60.42
2023-03-28T06:42:43.187Z,57.68
2023-03-28T06:45:46.084Z,57.85
2023-03-28T06:48:50.182Z,56.00
2023-03-28T06:51:53.241Z,56.54
2023-03-28T06:54:56.146Z,55.13
2023-03-28T06:57:58.920Z,56.33
2023-03-28T07:01:01.939Z,54.20
2023-03-28T07:04:06.708Z,54.47
2023-03-28T07:07:10.102Z,54.27
2023-03-28T07:10:13.054Z,52.77
2023-03-28T07:13:16.151Z,52.12
2023-03-28T07:16:19.349Z,52.82
2023-03-28T07:19:23.780Z,51.23
2023-03-28T07:22:27.410Z,51.60
2023-03-28T07:25:30.188Z,49.56
2023-03-28T07:28:33.301Z,50.10
2023-03-28T07:31:36.118Z,50.22
2023-03-28T07:34:40.527Z,49.96
2023-03-28T07:37:43.489Z,47.04
2023-03-28T07:40:46.358Z,47.22
2023-03-28T07:43:49.148Z,47.47
2023-03-28T07:46:52.967Z,46.78
2023-03-28T07:49:57.697Z,46.35
2023-03-28T07:53:01.014Z,45.60
2023-03-28T07:56:04.118Z,45.94
2023-03-28T07:59:06.957Z,44.40
2023-03-28T08:02:13.026Z,45.04
2023-03-28T08:05:17.458Z,46.29
2023-03-28T08:08:21.545Z,45.31
2023-03-28T08:11:24.352Z,44.25
2023-03-28T08:14:27.230Z,45.40
2023-03-28T08:17:30.225Z,43.74
2023-03-28T08:20:34.698Z,42.23
2023-03-28T08:23:37.931Z,43.29
2023-03-28T08:26:40.656Z,41.17
2023-03-28T08:29:43.854Z,40.03
2023-03-28T08:32:48.829Z,40.16
2023-03-28T08:35:54.073Z,40.10
2023-03-28T08:39:00.720Z,39.80
2023-03-28T08:42:26.958Z,40.60
2023-03-28T08:45:42.820Z,39.77
2023-03-28T08:48:47.606Z,41.19
2023-03-28T08:51:55.021Z,40.16
2023-03-28T08:55:04.788Z,39.55
2023-03-28T08:58:12.261Z,39.07
2023-03-28T09:01:16.439Z,39.48
2023-03-28T09:04:30.338Z,40.55
2023-03-28T09:07:42.341Z,38.69
2023-03-28T09:10:47.262Z,38.30
2023-03-28T09:14:01.398Z,38.72
2023-03-28T09:17:13.837Z,38.37
2023-03-28T09:20:22.587Z,39.22
2023-03-28T09:23:45.542Z,38.51
2023-03-28T09:26:53.434Z,37.49
2023-03-28T09:30:01.342Z,38.98
2023-03-28T09:33:12.235Z,38.86
2023-03-28T09:36:21.697Z,39.01
2023-03-28T09:39:34.885Z,39.66
2023-03-28T09:42:46.692Z,37.44
2023-03-28T09:46:00.390Z,37.54
2023-03-28T09:49:03.340Z,37.24
2023-03-28T09:52:16.031Z,36.66
2023-03-28T09:55:22.199Z,38.40
2023-03-28T09:58:25.086Z,38.17
2023-03-28T10:01:34.956Z,38.12
2023-03-28T10:04:39.505Z,37.01
2023-03-28T10:07:44.773Z,38.51
2023-03-28T10:10:58.218Z,38.27
2023-03-28T10:14:01.655Z,37.05
2023-03-28T10:17:08.071Z,37.05
2023-03-28T10:20:18.092Z,37.22
2023-03-28T10:23:23.493Z,34.98
2023-03-28T10:26:28.749Z,34.10
2023-03-28T10:29:31.683Z,34.39
2023-03-28T10:32:34.818Z,35.43
2023-03-28T10:35:41.371Z,33.33
2023-03-28T10:38:47.425Z,33.41
2023-03-28T10:41:55.650Z,32.33
2023-03-28T10:45:03.398Z,31.77
2023-03-28T10:48:12.810Z,30.90
2023-03-28T10:51:21.904Z,30.29
2023-03-28T10:54:39.827Z,30.33
2023-03-28T10:57:53.852Z,29.43
2023-03-28T11:01:05.983Z,28.88
2023-03-28T11:04:22.726Z,29.38
2023-03-28T11:07:34.159Z,30.24
2023-03-28T11:10:44.134Z,29.41
2023-03-28T11:13:58.078Z,28.51
2023-03-28T11:17:09.355Z,29.40
2023-03-28T11:20:28.302Z,29.88
2023-03-28T11:23:42.405Z,30.02
2023-03-28T11:27:02.133Z,27.62
2023-03-28T11:30:17.134Z,27.80
2023-03-28T11:33:26.045Z,26.86
2023-03-28T11:36:35.682Z,27.27
2023-03-28T11:39:43.669Z,28.34
2023-03-28T11:42:51.195Z,28.61
2023-03-28T11:45:59.074Z,30.27
2023-03-28T11:49:17.689Z,28.04
2023-03-28T11:52:26.648Z,27.60
2023-03-28T11:55:35.453Z,26.39
2023-03-28T11:58:44.392Z,26.54
2023-03-28T12:01:55.016Z,27.27
2023-03-28T12:05:03.554Z,27.53
2023-03-28T12:08:12.668Z,28.13
2023-03-28T12:11:22.338Z,28.49
2023-03-28T12:14:36.220Z,28.42
2023-03-28T12:17:46.067Z,29.16
2023-03-28T12:20:56.011Z,28.47
2023-03-28T12:24:06.678Z,28.87
2023-03-28T12:27:22.029Z,28.96
2023-03-28T12:30:30.031Z,29.09
2023-03-28T12:33:47.397Z,26.98
2023-03-28T12:36:56.272Z,27.73
2023-03-28T12:40:13.636Z,26.57
2023-03-28T12:43:19.548Z,26.25
2023-03-28T12:46:26.684Z,26.89
2023-03-28T12:49:36.659Z,27.13
2023-03-28T12:52:42.160Z,28.57
2023-03-28T12:55:48.079Z,29.58
2023-03-28T12:58:53.794Z,30.42
2023-03-28T13:01:58.226Z,30.96
2023-03-28T13:05:13.440Z,28.72
2023-03-28T13:08:24.860Z,29.86
2023-03-28T13:11:37.979Z,29.65
2023-03-28T13:14:42.359Z,29.27
2023-03-28T13:17:48.169Z,29.22
2023-03-28T13:20:53.638Z,29.91
2023-03-28T13:23:56.571Z,29.11
2023-03-28T13:27:01.511Z,28.77
2023-03-28T13:30:12.446Z,28.08
2023-03-28T13:33:23.111Z,28.73
2023-03-28T13:36:35.425Z,29.39
2023-03-28T13:39:41.823Z,29.45
2023-03-28T13:42:59.500Z,29.09
2023-03-28T13:46:08.581Z,29.40
2023-03-28T13:49:18.950Z,29.66
2023-03-28T13:52:25.043Z,29.51
2023-03-28T13:55:28.225Z,29.33
2023-03-28T13:58:31.004Z,29.36
2023-03-28T14:01:37.080Z,28.21
2023-03-28T14:04:39.871Z,27.54
2023-03-28T14:07:44.185Z,28.86
2023-03-28T14:10:48.332Z,29.74
2023-03-28T14:13:54.234Z,28.95
2023-03-28T14:16:58.154Z,29.06
2023-03-28T14:20:04.758Z,29.56
2023-03-28T14:23:09.088Z,29.43
2023-03-28T14:26:21.350Z,29.47
2023-03-28T14:29:25.010Z,29.29
2023-03-28T14:32:32.115Z,29.45
2023-03-28T14:35:36.958Z,28.60
2023-03-28T14:38:41.157Z,30.24
2023-03-28T14:41:45.185Z,28.39
2023-03-28T14:44:52.402Z,28.50
2023-03-28T14:47:56.795Z,28.94
2023-03-28T14:51:03.931Z,28.45
2023-03-28T14:54:14.402Z,28.09
2023-03-28T14:57:19.006Z,28.78
2023-03-28T15:00:26.087Z,28.12
2023-03-28T15:03:35.134Z,28.97
2023-03-28T15:06:39.330Z,29.01
2023-03-28T15:09:43.761Z,30.00
2023-03-28T15:12:50.108Z,30.25
2023-03-28T15:15:56.358Z,30.13
2023-03-28T15:19:06.905Z,29.59
2023-03-28T15:22:13.136Z,31.20
2023-03-28T15:25:17.839Z,30.13
2023-03-28T15:28:20.991Z,30.05
2023-03-28T15:31:24.721Z,30.60
2023-03-28T15:34:28.454Z,31.18
2023-03-28T15:37:41.951Z,30.64
2023-03-28T15:40:47.747Z,31.19
2023-03-28T15:44:13.186Z,31.58
2023-03-28T15:47:23.372Z,32.47
2023-03-28T15:50:31.054Z,33.94
2023-03-28T15:53:35.151Z,33.16
2023-03-28T15:56:44.286Z,33.34
2023-03-28T15:59:51.049Z,33.70
2023-03-28T16:02:53.909Z,33.70
2023-03-28T16:06:10.118Z,33.52
2023-03-28T16:09:19.212Z,33.33
2023-03-28T16:12:24.854Z,34.01
2023-03-28T16:15:27.939Z,33.96
2023-03-28T16:18:30.680Z,33.80
2023-03-28T16:21:34.132Z,33.75
2023-03-28T16:24:36.826Z,33.26
2023-03-28T16:27:42.492Z,34.99
2023-03-28T16:33:55.560Z,33.56
2023-03-28T16:36:58.393Z,34.89
2023-03-28T16:40:03.962Z,35.28
2023-03-28T16:43:08.753Z,35.91
2023-03-28T16:46:12.530Z,35.33
2023-03-28T16:49:16.812Z,35.65
2023-03-28T16:52:19.695Z,36.09
2023-03-28T16:55:23.708Z,35.46
2023-03-28T16:58:29.743Z,36.19
2023-03-28T17:01:32.853Z,37.21
2023-03-28T17:04:36.078Z,37.19
2023-03-28T17:07:38.921Z,37.76
2023-03-28T17:10:43.242Z,39.20
2023-03-28T17:13:48.258Z,40.14
2023-03-28T17:16:51.030Z,39.46
2023-03-28T17:19:53.942Z,40.18
2023-03-28T17:22:57.243Z,41.28
2023-03-28T17:26:00.703Z,41.54
2023-03-28T17:29:07.357Z,42.49
2023-03-28T17:32:10.452Z,42.82
2023-03-28T17:35:13.911Z,42.20
2023-03-28T17:38:16.928Z,42.34
2023-03-28T17:41:22.903Z,43.74
2023-03-28T17:44:27.305Z,44.07
2023-03-28T17:47:30.398Z,43.80
2023-03-28T17:50:33.486Z,43.99
2023-03-28T17:53:36.247Z,44.52
2023-03-28T17:56:39.550Z,45.30
2023-03-28T17:59:46.461Z,46.09
2023-03-28T18:02:51.405Z,45.39
2023-03-28T18:06:00.077Z,45.38
2023-03-28T18:09:03.139Z,44.72
2023-03-28T18:12:08.629Z,46.19
2023-03-28T18:15:13.210Z,47.54
2023-03-28T18:18:17.373Z,47.79
2023-03-28T18:21:20.138Z,48.19
2023-03-28T18:24:23.144Z,48.69
2023-03-28T18:27:26.054Z,48.52
2023-03-28T18:30:30.417Z,48.63
2023-03-28T18:33:33.259Z,48.77
2023-03-28T18:36:36.963Z,48.86
2023-03-28T18:39:41.587Z,49.10
2023-03-28T18:42:44.331Z,49.68
2023-03-28T18:45:53.947Z,49.80
2023-03-28T18:48:57.069Z,49.41
2023-03-28T18:52:04.219Z,50.28
2023-03-28T18:55:08.575Z,50.04
2023-03-28T18:58:11.595Z,51.10
2023-03-28T19:01:16.179Z,51.46
2023-03-28T19:04:19.468Z,51.46
2023-03-28T19:07:22.229Z,51.69
2023-03-28T19:10:26.002Z,51.73
2023-03-28T19:13:30.431Z,52.12
2023-03-28T19:16:34.735Z,52.03
2023-03-28T19:19:38.316Z,51.97
2023-03-28T19:22:41.518Z,52.35
2023-03-28T19:25:44.860Z,53.05
2023-03-28T19:28:48.771Z,53.52
2023-03-28T19:31:53.365Z,53.33
2023-03-28T19:34:56.186Z,53.22
2023-03-28T19:37:59.139Z,53.06
2023-03-28T19:41:03.428Z,53.12
2023-03-28T19:44:06.378Z,52.68
2023-03-28T19:47:10.841Z,52.90
2023-03-28T19:50:13.839Z,53.24
2023-03-28T19:53:16.724Z,53.32
2023-03-28T19:56:19.906Z,53.49
2023-03-28T19:59:22.665Z,53.71
2023-03-28T20:02:27.089Z,54.06
2023-03-28T20:05:29.995Z,54.05
2023-03-28T20:08:34.280Z,54.38
2023-03-28T20:11:39.973Z,54.83
2023-03-28T20:14:42.921Z,55.05
2023-03-28T20:17:48.343Z,55.56
2023-03-28T20:20:52.010Z,56.32
2023-03-28T20:23:55.261Z,55.95
2023-03-28T20:26:58.442Z,56.00
2023-03-28T20:30:01.267Z,55.90
2023-03-28T20:33:05.742Z,55.90
2023-03-28T20:36:09.071Z,55.54
2023-03-28T20:39:11.863Z,56.09
2023-03-28T20:42:15.085Z,56.58
2023-03-28T20:45:23.107Z,57.32
2023-03-28T20:48:34.838Z,57.01
2023-03-28T20:51:39.516Z,57.02
2023-03-28T20:54:42.409Z,57.17
2023-03-28T20:57:45.358Z,57.06
2023-03-28T21:00:49.404Z,57.33
2023-03-28T21:03:54.541Z,57.32
2023-03-28T21:06:57.708Z,57.05
2023-03-28T21:10:00.659Z,57.05
2023-03-28T21:13:03.516Z,57.47
2023-03-28T21:16:07.372Z,57.63
2023-03-28T21:19:11.510Z,57.77
2023-03-28T21:22:14.360Z,57.96
2023-03-28T21:25:17.435Z,57.56
2023-03-28T21:28:20.468Z,57.88
2023-03-28T21:31:25.983Z,58.46
2023-03-28T21:34:34.176Z,58.48
2023-03-28T21:37:37.028Z,58.17
2023-03-28T21:40:39.697Z,58.99
2023-03-28T21:43:42.768Z,59.15
2023-03-28T21:46:45.800Z,58.32
2023-03-28T21:49:50.367Z,59.46
2023-03-28T21:52:53.174Z,59.42
2023-03-28T21:55:56.337Z,59.16
2023-03-28T21:58:59.170Z,59.28
2023-03-28T22:02:02.113Z,59.20
2023-03-28T22:05:15.467Z,59.73
2023-03-28T22:08:25.596Z,60.27
2023-03-28T22:11:28.859Z,59.62
2023-03-28T22:14:31.605Z,60.35
2023-03-28T22:17:37.271Z,60.82
2023-03-28T22:20:43.497Z,60.45
2023-03-28T22:23:47.824Z,60.84
2023-03-28T22:26:50.866Z,60.42
2023-03-28T22:29:53.764Z,60.57
2023-03-28T22:32:57.461Z,61.39
2023-03-28T22:36:01.747Z,61.13
2023-03-28T22:39:04.890Z,61.18
2023-03-28T22:42:07.795Z,62.29
2023-03-28T22:45:10.968Z,61.61
2023-03-28T22:48:15.191Z,61.92
2023-03-28T22:51:19.275Z,61.67
2023-03-28T22:54:22.902Z,61.84
2023-03-28T22:57:25.888Z,62.19
2023-03-28T23:00:28.815Z,62.25
2023-03-28T23:03:32.563Z,62.57
2023-03-28T23:06:38.684Z,63.02
2023-03-28T23:09:44.298Z,62.86
2023-03-28T23:12:47.527Z,63.21
2023-03-28T23:15:50.321Z,63.00
2023-03-28T23:18:53.481Z,63.14
2023-03-28T23:21:57.847Z,63.72
2023-03-28T23:25:01.298Z,63.49
2023-03-28T23:28:04.273Z,63.57
2023-03-28T23:31:07.484Z,63.86
2023-03-28T23:34:10.371Z,64.11
2023-03-28T23:37:14.490Z,64.24
2023-03-28T23:40:17.354Z,64.28
2023-03-28T23:43:20.291Z,64.18
2023-03-28T23:46:23.084Z,64.17
2023-03-28T23:49:26.179Z,64.29
2023-03-28T23:52:30.716Z,64.70
2023-03-28T23:55:34.379Z,64.69
2023-03-28T23:58:37.416Z,65.18
